Time;durP1;ratioP1;P1;durP2;ratioP2;P2;SDS_P1;SDS_P2;PMS_P1;PMS_P2;Temp;Humidity;BMP_temperature;BMP_pressure;BME280_temperature;BME280_humidity;BME280_pressure;Samples;Min_cycle;Max_cycle;Signal;HPM_P1;HPM_P2
2023/01/29 00:01:02;;;;;;;21.30;13.60;;;;;;;;;;5082812;28;20455;-79
2023/01/29 00:03:30;;;;;;;19.20;12.13;;;;;;;;;;5080515;28;20463;-79
2023/01/29 00:05:56;;;;;;;21.43;13.40;;;;;;;;;;5080093;28;20498;-79
2023/01/29 00:08:23;;;;;;;22.53;13.47;;;;;;;;;;5081886;28;20462;-79
2023/01/29 00:10:49;;;;;;;23.93;12.97;;;;;;;;;;5084383;28;20457;-79
2023/01/29 00:13:15;;;;;;;19.93;12.70;;;;;;;;;;5083491;28;20466;-79
2023/01/29 00:15:42;;;;;;;21.60;12.33;;;;;;;;;;5082352;28;20451;-79
2023/01/29 00:18:08;;;;;;;17.27;11.40;;;;;;;;;;5081204;28;20470;-79
2023/01/29 00:20:36;;;;;;;24.83;13.53;;;;;;;;;;5084784;28;20453;-79
2023/01/29 00:23:04;;;;;;;22.97;12.73;;;;;;;;;;5081224;28;20475;-79
2023/01/29 00:25:31;;;;;;;26.67;13.10;;;;;;;;;;5082854;28;20486;-78
2023/01/29 00:27:57;;;;;;;20.10;13.37;;;;;;;;;;5082622;28;20489;-79
2023/01/29 00:30:24;;;;;;;22.80;13.27;;;;;;;;;;5082853;28;20454;-79
2023/01/29 00:32:51;;;;;;;19.33;11.93;;;;;;;;;;5081430;28;20481;-79
2023/01/29 00:35:18;;;;;;;31.43;14.13;;;;;;;;;;5079492;28;20501;-79
2023/01/29 00:37:46;;;;;;;24.77;14.90;;;;;;;;;;5081363;28;20454;-79
2023/01/29 00:40:12;;;;;;;25.27;13.77;;;;;;;;;;5081772;28;20479;-79
2023/01/29 00:45:23;;;;;;;21.43;13.13;;;;;;;;;;5081592;28;20564;-79
2023/01/29 00:47:49;;;;;;;21.60;13.50;;;;;;;;;;5082007;28;20463;-79
2023/01/29 00:50:16;;;;;;;19.63;12.87;;;;;;;;;;5080725;28;20475;-79
2023/01/29 00:52:44;;;;;;;22.50;13.23;;;;;;;;;;5078531;28;20462;-79
2023/01/29 00:55:12;;;;;;;22.27;13.50;;;;;;;;;;5080859;28;20474;-79
2023/01/29 00:57:38;;;;;;;23.90;14.50;;;;;;;;;;5083722;28;20854;-79
2023/01/29 01:00:07;;;;;;;19.90;12.80;;;;;;;;;;5081333;28;20471;-79
2023/01/29 01:05:18;;;;;;;26.93;15.30;;;;;;;;;;5081490;28;20473;-79
2023/01/29 01:07:44;;;;;;;29.43;16.40;;;;;;;;;;5080882;28;20469;-78
2023/01/29 01:10:20;;;;;;;27.37;13.77;;;;;;;;;;5080152;28;20473;-79
2023/01/29 01:12:46;;;;;;;24.43;14.83;;;;;;;;;;5081086;28;20464;-79
2023/01/29 01:15:14;;;;;;;20.53;14.20;;;;;;;;;;5080332;28;20485;-79
2023/01/29 01:17:40;;;;;;;22.03;12.40;;;;;;;;;;5079761;28;20461;-79
2023/01/29 01:20:07;;;;;;;22.83;14.50;;;;;;;;;;5082397;28;20485;-79
2023/01/29 01:22:34;;;;;;;26.10;13.67;;;;;;;;;;5080297;28;20458;-79
2023/01/29 01:25:01;;;;;;;27.20;15.43;;;;;;;;;;5080824;28;20527;-79
2023/01/29 01:27:29;;;;;;;27.47;14.67;;;;;;;;;;5081587;28;20457;-79
2023/01/29 01:29:55;;;;;;;25.93;15.20;;;;;;;;;;5079637;28;20527;-79
2023/01/29 01:32:22;;;;;;;23.30;14.33;;;;;;;;;;5080523;28;20458;-79
2023/01/29 01:34:49;;;;;;;23.10;13.77;;;;;;;;;;5079212;28;20486;-79
2023/01/29 01:37:15;;;;;;;25.30;14.60;;;;;;;;;;5084461;28;20507;-79
2023/01/29 01:39:49;;;;;;;24.33;13.97;;;;;;;;;;5079213;28;20703;-79
2023/01/29 01:42:15;;;;;;;24.60;14.73;;;;;;;;;;5080840;28;20490;-79
2023/01/29 01:44:57;;;;;;;26.03;14.13;;;;;;;;;;5081337;28;20478;-79
2023/01/29 01:47:26;;;;;;;24.50;14.80;;;;;;;;;;5080387;28;20533;-79
2023/01/29 01:49:53;;;;;;;24.40;14.43;;;;;;;;;;5080593;28;20482;-79
2023/01/29 01:52:20;;;;;;;23.50;15.17;;;;;;;;;;5080310;28;20466;-79
2023/01/29 01:54:47;;;;;;;30.00;16.37;;;;;;;;;;5079127;28;20470;-79
2023/01/29 01:57:15;;;;;;;28.10;14.77;;;;;;;;;;5081558;28;20967;-79
2023/01/29 01:59:45;;;;;;;26.80;14.97;;;;;;;;;;5078806;28;20466;-79
2023/01/29 02:10:27;;;;;;;25.40;15.23;;;;;;;;;;5081061;28;20970;-79
2023/01/29 02:12:55;;;;;;;25.57;14.97;;;;;;;;;;5079050;28;20475;-79
2023/01/29 02:15:21;;;;;;;25.87;15.90;;;;;;;;;;5080180;28;20472;-79
2023/01/29 02:17:49;;;;;;;24.83;14.50;;;;;;;;;;5080412;28;20451;-79
2023/01/29 02:20:23;;;;;;;26.40;13.93;;;;;;;;;;5080461;28;20835;-79
2023/01/29 02:23:04;;;;;;;26.73;15.73;;;;;;;;;;5079164;28;20458;-79
2023/01/29 02:25:43;;;;;;;24.40;16.00;;;;;;;;;;5077528;28;20485;-79
2023/01/29 02:28:30;;;;;;;27.50;14.07;;;;;;;;;;5079214;28;20978;-79
2023/01/29 02:31:00;;;;;;;22.87;13.63;;;;;;;;;;5079105;28;20465;-79
2023/01/29 02:33:30;;;;;;;30.93;16.50;;;;;;;;;;5079594;28;20986;-79
2023/01/29 02:35:59;;;;;;;35.20;17.90;;;;;;;;;;5078569;28;20458;-79
2023/01/29 02:38:31;;;;;;;27.00;14.30;;;;;;;;;;5076695;28;20994;-79
2023/01/29 02:41:01;;;;;;;29.37;16.33;;;;;;;;;;5079921;28;20466;-79
2023/01/29 02:43:34;;;;;;;28.80;14.57;;;;;;;;;;5078653;28;20479;-79
2023/01/29 02:46:02;;;;;;;27.20;16.20;;;;;;;;;;5076621;28;20895;-79
2023/01/29 02:48:37;;;;;;;28.07;15.87;;;;;;;;;;5078471;28;20470;-79
2023/01/29 02:51:05;;;;;;;25.50;15.70;;;;;;;;;;5078507;28;20989;-79
2023/01/29 02:53:35;;;;;;;26.37;15.77;;;;;;;;;;5076871;28;20475;-79
2023/01/29 02:56:03;;;;;;;28.13;16.27;;;;;;;;;;5083164;28;20462;-79
2023/01/29 02:58:36;;;;;;;27.87;16.17;;;;;;;;;;5081868;28;20834;-79
2023/01/29 03:01:06;;;;;;;29.70;17.20;;;;;;;;;;5082694;28;20841;-79
2023/01/29 03:03:36;;;;;;;31.73;17.70;;;;;;;;;;5081211;28;20476;-79
2023/01/29 03:06:06;;;;;;;33.30;16.30;;;;;;;;;;5082746;28;20474;-79
2023/01/29 03:08:42;;;;;;;24.83;14.70;;;;;;;;;;5081599;28;21814;-79
2023/01/29 03:11:12;;;;;;;28.10;16.27;;;;;;;;;;5081218;28;20557;-79
2023/01/29 03:13:47;;;;;;;27.30;15.87;;;;;;;;;;5080490;28;20481;-79
2023/01/29 03:16:17;;;;;;;30.57;16.57;;;;;;;;;;5081054;28;20540;-79
2023/01/29 03:18:49;;;;;;;27.40;15.03;;;;;;;;;;5079520;28;20481;-79
2023/01/29 03:32:16;;;;;;;31.00;17.87;;;;;;;;;;5082406;28;20528;-79
2023/01/29 03:34:44;;;;;;;29.40;15.93;;;;;;;;;;5081700;28;20485;-79
2023/01/29 03:37:14;;;;;;;33.20;16.07;;;;;;;;;;5080491;28;20472;-79
2023/01/29 03:39:41;;;;;;;27.87;16.30;;;;;;;;;;5082174;28;20539;-79
2023/01/29 03:42:12;;;;;;;32.43;18.90;;;;;;;;;;5080426;28;20466;-79
2023/01/29 03:44:45;;;;;;;39.23;18.80;;;;;;;;;;5078973;28;20497;-79
2023/01/29 03:47:15;;;;;;;37.67;19.27;;;;;;;;;;5081016;28;20533;-79
2023/01/29 03:49:46;;;;;;;32.23;18.57;;;;;;;;;;5080405;28;20477;-79
2023/01/29 03:52:16;;;;;;;34.30;19.00;;;;;;;;;;5083091;28;20453;-79
2023/01/29 03:54:51;;;;;;;30.67;19.57;;;;;;;;;;5079772;28;20486;-79
2023/01/29 03:57:22;;;;;;;31.53;19.07;;;;;;;;;;5080582;28;20461;-79
2023/01/29 03:59:55;;;;;;;35.47;18.73;;;;;;;;;;5080364;28;20505;-79
2023/01/29 04:02:27;;;;;;;31.63;19.50;;;;;;;;;;5081668;28;20564;-79
2023/01/29 04:04:56;;;;;;;30.03;17.57;;;;;;;;;;5080195;28;20487;-79
2023/01/29 04:07:23;;;;;;;34.50;19.70;;;;;;;;;;5035696;28;1266836;-79
2023/01/29 04:09:51;;;;;;;27.57;18.13;;;;;;;;;;5083010;28;20216;-79
2023/01/29 04:12:20;;;;;;;30.90;18.30;;;;;;;;;;5080785;28;20481;-79
2023/01/29 04:14:47;;;;;;;36.30;20.20;;;;;;;;;;5081124;28;20521;-79
2023/01/29 04:17:21;;;;;;;34.67;22.20;;;;;;;;;;5083029;28;20454;-79
2023/01/29 04:19:47;;;;;;;34.27;20.43;;;;;;;;;;5081134;28;20482;-79
2023/01/29 04:22:18;;;;;;;34.10;20.20;;;;;;;;;;5081818;28;20982;-79
2023/01/29 04:24:45;;;;;;;36.00;20.97;;;;;;;;;;5082018;28;20478;-79
2023/01/29 04:27:20;;;;;;;34.10;19.43;;;;;;;;;;5082367;28;20509;-79
2023/01/29 04:29:52;;;;;;;34.23;18.87;;;;;;;;;;5080985;28;20481;-79
2023/01/29 04:32:23;;;;;;;37.53;20.50;;;;;;;;;;5081931;28;20453;-79
2023/01/29 04:34:59;;;;;;;35.13;20.50;;;;;;;;;;5081223;28;20479;-79
2023/01/29 04:37:30;;;;;;;38.10;21.83;;;;;;;;;;5081527;28;20462;-79
2023/01/29 04:39:59;;;;;;;29.37;18.53;;;;;;;;;;5080884;28;20473;-79
2023/01/29 04:42:29;;;;;;;35.67;19.63;;;;;;;;;;5080254;28;20458;-79
2023/01/29 04:45:00;;;;;;;40.17;20.93;;;;;;;;;;5081439;28;20483;-79
2023/01/29 04:47:32;;;;;;;34.17;21.10;;;;;;;;;;5081058;28;20461;-79
2023/01/29 04:50:02;;;;;;;32.27;19.77;;;;;;;;;;5080501;28;20843;-79
2023/01/29 04:52:32;;;;;;;36.60;21.10;;;;;;;;;;5080837;28;20454;-79
2023/01/29 04:55:02;;;;;;;35.03;21.90;;;;;;;;;;5080843;28;20479;-79
2023/01/29 04:57:33;;;;;;;34.37;23.60;;;;;;;;;;5079338;28;20466;-79
2023/01/29 05:00:04;;;;;;;41.63;21.37;;;;;;;;;;5081043;28;20512;-79
2023/01/29 05:02:36;;;;;;;34.40;21.00;;;;;;;;;;5080335;28;20486;-79
2023/01/29 05:05:04;;;;;;;40.40;21.30;;;;;;;;;;5080631;28;20557;-79
2023/01/29 05:07:31;;;;;;;33.53;21.90;;;;;;;;;;5079144;28;20459;-79
2023/01/29 05:09:57;;;;;;;36.30;21.10;;;;;;;;;;5082272;28;20470;-79
2023/01/29 05:12:25;;;;;;;35.77;23.23;;;;;;;;;;5078959;28;20466;-79
2023/01/29 05:14:53;;;;;;;36.60;21.67;;;;;;;;;;5080211;28;20483;-79
2023/01/29 05:17:20;;;;;;;37.20;20.90;;;;;;;;;;5079472;28;20978;-79
2023/01/29 05:19:48;;;;;;;32.47;19.87;;;;;;;;;;5080101;28;20479;-79
2023/01/29 05:22:16;;;;;;;34.00;21.60;;;;;;;;;;5082634;28;20480;-79
2023/01/29 05:24:43;;;;;;;36.37;22.50;;;;;;;;;;5080728;28;20478;-79
2023/01/29 05:29:56;;;;;;;38.90;22.80;;;;;;;;;;5079050;28;20582;-79
2023/01/29 05:32:22;;;;;;;37.40;20.70;;;;;;;;;;5079414;28;20891;-79
2023/01/29 05:34:50;;;;;;;38.17;23.20;;;;;;;;;;5078914;28;20505;-79
2023/01/29 05:37:16;;;;;;;39.17;22.30;;;;;;;;;;5078901;28;20458;-79
2023/01/29 05:39:43;;;;;;;47.40;24.47;;;;;;;;;;5076029;28;20475;-79
2023/01/29 05:42:09;;;;;;;45.50;24.10;;;;;;;;;;5080688;28;20987;-79
2023/01/29 05:44:36;;;;;;;42.03;23.07;;;;;;;;;;5078541;28;20482;-79
2023/01/29 05:47:03;;;;;;;40.40;23.30;;;;;;;;;;5077686;28;20486;-79
2023/01/29 05:49:29;;;;;;;35.50;21.73;;;;;;;;;;5081026;28;20477;-79
2023/01/29 05:51:57;;;;;;;38.30;24.37;;;;;;;;;;5078363;28;20471;-79
2023/01/29 05:54:23;;;;;;;40.90;23.10;;;;;;;;;;5078814;28;20504;-79
2023/01/29 05:56:50;;;;;;;49.23;27.27;;;;;;;;;;5078840;28;20455;-79
2023/01/29 05:59:17;;;;;;;45.00;24.83;;;;;;;;;;5078440;28;20473;-79
2023/01/29 06:01:44;;;;;;;39.30;25.63;;;;;;;;;;5077784;28;20975;-79
2023/01/29 06:04:10;;;;;;;41.50;26.53;;;;;;;;;;5077785;28;20478;-79
2023/01/29 06:06:37;;;;;;;42.87;25.60;;;;;;;;;;5078741;28;20474;-79
2023/01/29 06:09:05;;;;;;;43.83;26.53;;;;;;;;;;5078575;28;20467;-79
2023/01/29 06:11:31;;;;;;;44.43;26.77;;;;;;;;;;5080406;28;20459;-79
2023/01/29 06:13:57;;;;;;;51.83;27.97;;;;;;;;;;5078970;28;20478;-79
2023/01/29 06:16:24;;;;;;;43.70;24.80;;;;;;;;;;5078818;28;20458;-79
2023/01/29 06:18:50;;;;;;;40.87;24.80;;;;;;;;;;5076818;28;20485;-79
2023/01/29 06:21:17;;;;;;;50.27;26.13;;;;;;;;;;5080080;28;20454;-79
2023/01/29 06:23:44;;;;;;;45.20;24.27;;;;;;;;;;5079385;28;20995;-79
2023/01/29 06:26:13;;;;;;;48.30;27.40;;;;;;;;;;5080248;28;20486;-79
2023/01/29 06:28:39;;;;;;;46.23;24.83;;;;;;;;;;5079566;28;20497;-79
2023/01/29 06:31:07;;;;;;;46.83;28.03;;;;;;;;;;5078350;28;20827;-79
2023/01/29 06:33:33;;;;;;;45.43;28.27;;;;;;;;;;5078123;28;20997;-79
2023/01/29 06:36:01;;;;;;;51.33;28.80;;;;;;;;;;5079463;28;20459;-79
2023/01/29 06:38:27;;;;;;;46.77;27.70;;;;;;;;;;5077224;28;20485;-79
2023/01/29 06:40:54;;;;;;;45.07;28.07;;;;;;;;;;5079675;28;20830;-79
2023/01/29 06:43:22;;;;;;;48.10;27.90;;;;;;;;;;5077589;28;20462;-79
2023/01/29 06:45:49;;;;;;;47.33;27.80;;;;;;;;;;5080579;28;20897;-79
2023/01/29 06:48:16;;;;;;;48.50;27.63;;;;;;;;;;5078638;28;20467;-79
2023/01/29 06:50:42;;;;;;;49.60;28.60;;;;;;;;;;5078788;28;20465;-79
2023/01/29 06:53:10;;;;;;;49.50;28.97;;;;;;;;;;5079696;28;20490;-79
2023/01/29 06:55:37;;;;;;;48.83;30.07;;;;;;;;;;5077828;28;20466;-79
2023/01/29 06:58:05;;;;;;;46.90;28.23;;;;;;;;;;5078551;28;20970;-79
2023/01/29 07:00:33;;;;;;;52.17;30.30;;;;;;;;;;5077771;28;20951;-79
2023/01/29 07:02:59;;;;;;;52.10;28.83;;;;;;;;;;5078101;28;20548;-79
2023/01/29 07:05:25;;;;;;;49.73;28.17;;;;;;;;;;5080000;28;20466;-79
2023/01/29 07:07:52;;;;;;;46.33;28.03;;;;;;;;;;5078376;28;20485;-79
2023/01/29 07:10:19;;;;;;;52.67;29.50;;;;;;;;;;5079977;28;20483;-79
2023/01/29 07:12:46;;;;;;;47.30;27.43;;;;;;;;;;5079481;28;20458;-79
2023/01/29 07:15:12;;;;;;;56.27;29.03;;;;;;;;;;5078834;28;21171;-79
2023/01/29 07:17:40;;;;;;;48.00;28.30;;;;;;;;;;5079764;28;20459;-79
2023/01/29 07:20:07;;;;;;;59.87;30.23;;;;;;;;;;5079930;28;20473;-79
2023/01/29 07:22:33;;;;;;;50.43;29.20;;;;;;;;;;5080398;28;20448;-79
2023/01/29 07:25:00;;;;;;;48.33;29.90;;;;;;;;;;5079494;28;20478;-79
2023/01/29 07:27:27;;;;;;;51.13;28.77;;;;;;;;;;5078668;28;20494;-79
2023/01/29 07:29:54;;;;;;;65.60;29.00;;;;;;;;;;5077612;28;20548;-79
2023/01/29 07:32:20;;;;;;;49.13;30.57;;;;;;;;;;5074685;28;20466;-79
2023/01/29 07:34:48;;;;;;;55.17;30.50;;;;;;;;;;5079207;28;20481;-79
2023/01/29 07:37:14;;;;;;;50.60;30.20;;;;;;;;;;5081021;28;20438;-79
2023/01/29 07:39:41;;;;;;;51.40;29.93;;;;;;;;;;5075301;28;20527;-79
2023/01/29 07:42:07;;;;;;;58.13;30.17;;;;;;;;;;5085066;28;20448;-79
2023/01/29 07:44:33;;;;;;;53.63;31.00;;;;;;;;;;5081231;28;21014;-79
2023/01/29 07:47:00;;;;;;;54.37;28.77;;;;;;;;;;5082691;28;20854;-79
2023/01/29 07:49:26;;;;;;;52.33;29.67;;;;;;;;;;5079735;28;20477;-79
2023/01/29 07:51:55;;;;;;;54.10;31.83;;;;;;;;;;5082221;28;20470;-79
2023/01/29 07:54:21;;;;;;;57.97;30.07;;;;;;;;;;5079710;28;20843;-79
2023/01/29 07:56:48;;;;;;;58.90;29.93;;;;;;;;;;5081967;28;20455;-79
2023/01/29 07:59:16;;;;;;;52.90;31.13;;;;;;;;;;5081573;28;21015;-79
2023/01/29 08:01:42;;;;;;;61.50;32.40;;;;;;;;;;5080983;28;20547;-78
2023/01/29 08:04:09;;;;;;;62.53;30.60;;;;;;;;;;5079174;28;20489;-79
2023/01/29 08:06:35;;;;;;;56.80;34.93;;;;;;;;;;5082211;28;21024;-79
2023/01/29 08:09:03;;;;;;;61.73;33.63;;;;;;;;;;5081225;28;20498;-78
2023/01/29 08:11:29;;;;;;;51.13;30.23;;;;;;;;;;5080270;28;20461;-79
2023/01/29 08:13:56;;;;;;;56.70;33.73;;;;;;;;;;5080989;28;20488;-79
2023/01/29 08:16:22;;;;;;;54.00;31.50;;;;;;;;;;5079742;28;20549;-79
2023/01/29 08:18:49;;;;;;;59.70;29.87;;;;;;;;;;5080745;28;20465;-79
2023/01/29 08:21:15;;;;;;;56.17;32.33;;;;;;;;;;5081907;28;20469;-79
2023/01/29 08:23:42;;;;;;;52.97;32.37;;;;;;;;;;5081845;28;20484;-79
2023/01/29 08:26:09;;;;;;;58.07;32.20;;;;;;;;;;5079726;28;20494;-79
2023/01/29 08:28:37;;;;;;;60.10;32.90;;;;;;;;;;5081302;28;20478;-79
2023/01/29 08:31:04;;;;;;;63.87;31.83;;;;;;;;;;5081506;28;20462;-79
2023/01/29 08:33:31;;;;;;;53.03;30.90;;;;;;;;;;5082228;28;20472;-79
2023/01/29 08:35:57;;;;;;;59.17;31.13;;;;;;;;;;5083608;28;20468;-79
2023/01/29 08:38:24;;;;;;;55.60;29.37;;;;;;;;;;5079928;28;20474;-79
2023/01/29 08:40:50;;;;;;;60.30;30.57;;;;;;;;;;5078115;28;20507;-79
2023/01/29 08:43:18;;;;;;;60.63;33.20;;;;;;;;;;5079062;28;20462;-79
2023/01/29 08:45:44;;;;;;;51.60;30.13;;;;;;;;;;5080690;28;20963;-79
2023/01/29 08:48:11;;;;;;;46.90;28.53;;;;;;;;;;5080521;28;20482;-79
2023/01/29 08:50:38;;;;;;;53.43;32.37;;;;;;;;;;5081411;28;20835;-79
2023/01/29 08:53:06;;;;;;;55.20;28.57;;;;;;;;;;5075482;28;20493;-79
2023/01/29 08:55:33;;;;;;;52.83;28.70;;;;;;;;;;5079078;28;20507;-79
2023/01/29 08:58:00;;;;;;;51.90;29.23;;;;;;;;;;5079443;28;20451;-79
2023/01/29 09:00:28;;;;;;;53.53;27.60;;;;;;;;;;5081036;28;20470;-79
2023/01/29 09:02:54;;;;;;;51.17;28.23;;;;;;;;;;5080128;28;20485;-79
2023/01/29 09:05:21;;;;;;;47.10;28.60;;;;;;;;;;5081154;28;20559;-79
2023/01/29 09:07:47;;;;;;;49.87;28.13;;;;;;;;;;5082547;28;20475;-79
2023/01/29 09:10:16;;;;;;;45.00;27.03;;;;;;;;;;5082202;28;20470;-79
2023/01/29 09:12:42;;;;;;;38.30;22.70;;;;;;;;;;5079886;28;20457;-78
2023/01/29 09:15:09;;;;;;;46.13;25.47;;;;;;;;;;5077829;28;20483;-79
2023/01/29 09:17:37;;;;;;;46.23;25.73;;;;;;;;;;5079688;28;20457;-79
2023/01/29 09:20:04;;;;;;;40.20;24.10;;;;;;;;;;5080246;28;20493;-79
2023/01/29 09:22:31;;;;;;;45.00;25.23;;;;;;;;;;5079612;28;20999;-79
2023/01/29 09:24:58;;;;;;;44.33;25.70;;;;;;;;;;5078943;28;20478;-79
2023/01/29 09:27:24;;;;;;;39.90;24.27;;;;;;;;;;5081937;28;20482;-79
2023/01/29 09:29:52;;;;;;;41.83;25.40;;;;;;;;;;5080069;28;20475;-79
2023/01/29 09:32:18;;;;;;;43.53;24.93;;;;;;;;;;5079772;28;20464;-79
2023/01/29 09:34:46;;;;;;;41.47;23.03;;;;;;;;;;5079896;28;20479;-79
2023/01/29 09:37:13;;;;;;;34.83;23.40;;;;;;;;;;5079259;28;20820;-79
2023/01/29 09:39:39;;;;;;;41.20;23.80;;;;;;;;;;5080428;28;20477;-78
2023/01/29 09:42:08;;;;;;;41.77;25.67;;;;;;;;;;5080598;28;20469;-79
2023/01/29 09:44:47;;;;;;;46.13;26.50;;;;;;;;;;5080029;28;20482;-78
2023/01/29 09:47:15;;;;;;;40.93;24.37;;;;;;;;;;5079898;28;20568;-79
2023/01/29 09:49:45;;;;;;;46.00;25.03;;;;;;;;;;5079364;28;20489;-79
2023/01/29 09:52:16;;;;;;;37.60;24.83;;;;;;;;;;5079470;28;20462;-79
2023/01/29 09:54:48;;;;;;;40.67;24.70;;;;;;;;;;5079830;28;20476;-79
2023/01/29 09:57:19;;;;;;;35.97;23.97;;;;;;;;;;5080970;28;20454;-80
2023/01/29 09:59:45;;;;;;;45.93;26.00;;;;;;;;;;5081256;27;20540;-79
2023/01/29 10:02:19;;;;;;;39.83;24.30;;;;;;;;;;5078544;28;20473;-79
2023/01/29 10:05:13;;;;;;;40.07;24.87;;;;;;;;;;5079069;28;20485;-79
2023/01/29 10:07:55;;;;;;;42.33;25.50;;;;;;;;;;5045086;28;20478;-79
2023/01/29 10:10:28;;;;;;;40.43;25.07;;;;;;;;;;5074538;28;20478;-78
2023/01/29 10:13:02;;;;;;;36.73;25.57;;;;;;;;;;5080989;28;20489;-79
2023/01/29 10:15:37;;;;;;;46.30;28.43;;;;;;;;;;5079259;28;20485;-79
2023/01/29 10:18:13;;;;;;;44.23;24.47;;;;;;;;;;5079529;28;20921;-79
2023/01/29 10:20:47;;;;;;;42.60;25.30;;;;;;;;;;5081934;28;20461;-79
2023/01/29 10:23:21;;;;;;;40.20;25.33;;;;;;;;;;5077747;28;20473;-79
2023/01/29 10:25:48;;;;;;;42.13;26.87;;;;;;;;;;5079659;28;20492;-79
2023/01/29 10:28:18;;;;;;;39.43;25.27;;;;;;;;;;5077480;28;20477;-79
2023/01/29 10:30:47;;;;;;;37.17;24.30;;;;;;;;;;5075720;28;20963;-79
2023/01/29 10:33:17;;;;;;;45.30;25.97;;;;;;;;;;5078707;28;20468;-79
2023/01/29 10:35:48;;;;;;;36.73;24.90;;;;;;;;;;5081485;28;20469;-79
2023/01/29 10:38:18;;;;;;;40.87;26.77;;;;;;;;;;5077067;28;21059;-79
2023/01/29 10:40:48;;;;;;;38.03;23.77;;;;;;;;;;5080822;28;20470;-79
2023/01/29 10:43:16;;;;;;;39.03;25.40;;;;;;;;;;5078859;28;20498;-79
2023/01/29 10:45:49;;;;;;;39.07;24.37;;;;;;;;;;5078448;28;20458;-79
2023/01/29 10:48:35;;;;;;;39.63;26.73;;;;;;;;;;5077088;28;25585;-78
2023/01/29 10:51:05;;;;;;;42.37;27.13;;;;;;;;;;5079514;28;20462;-79
2023/01/29 10:53:36;;;;;;;37.83;24.63;;;;;;;;;;5077462;28;20851;-79
2023/01/29 10:56:06;;;;;;;37.37;23.87;;;;;;;;;;5079923;28;20466;-79
2023/01/29 10:58:36;;;;;;;34.77;23.07;;;;;;;;;;5081101;28;20469;-79
2023/01/29 11:01:04;;;;;;;41.33;24.00;;;;;;;;;;5078661;28;20467;-79
2023/01/29 11:03:31;;;;;;;35.90;23.60;;;;;;;;;;5076908;28;20481;-79
2023/01/29 11:06:04;;;;;;;42.43;25.17;;;;;;;;;;5079966;28;20532;-79
2023/01/29 11:08:33;;;;;;;43.63;25.80;;;;;;;;;;5079281;28;20466;-79
2023/01/29 11:11:04;;;;;;;38.43;24.80;;;;;;;;;;5077223;28;20955;-78
2023/01/29 11:13:33;;;;;;;43.73;25.57;;;;;;;;;;5077510;28;20466;-79
2023/01/29 11:16:01;;;;;;;37.23;25.50;;;;;;;;;;5081118;28;20458;-79
2023/01/29 11:18:47;;;;;;;41.20;27.57;;;;;;;;;;5081770;28;21023;-79
2023/01/29 11:21:14;;;;;;;43.10;25.30;;;;;;;;;;5080686;28;20453;-79
2023/01/29 11:23:41;;;;;;;52.63;26.23;;;;;;;;;;5082236;28;20505;-79
2023/01/29 11:26:09;;;;;;;53.53;28.27;;;;;;;;;;5081597;28;20458;-79
2023/01/29 11:28:36;;;;;;;55.47;26.50;;;;;;;;;;5082446;28;20477;-79
2023/01/29 11:31:03;;;;;;;41.17;26.10;;;;;;;;;;5080453;28;20454;-79
2023/01/29 11:33:33;;;;;;;44.27;26.37;;;;;;;;;;5083306;28;20516;-79
2023/01/29 11:36:00;;;;;;;43.10;26.50;;;;;;;;;;5081987;28;20461;-79
2023/01/29 11:38:27;;;;;;;37.10;23.67;;;;;;;;;;5082552;28;20474;-79
2023/01/29 11:41:04;;;;;;;44.40;25.20;;;;;;;;;;5081639;28;20459;-79
2023/01/29 11:43:31;;;;;;;40.87;25.17;;;;;;;;;;5082342;28;20489;-79
2023/01/29 11:45:59;;;;;;;36.30;24.37;;;;;;;;;;5081441;28;20453;-79
2023/01/29 11:48:30;;;;;;;42.70;25.77;;;;;;;;;;5081223;28;20478;-79
2023/01/29 11:50:59;;;;;;;45.77;24.70;;;;;;;;;;5080887;28;20458;-79
2023/01/29 11:53:34;;;;;;;42.10;27.50;;;;;;;;;;5080544;28;20474;-79
2023/01/29 11:56:02;;;;;;;42.33;26.67;;;;;;;;;;5082974;28;20453;-79
2023/01/29 11:58:30;;;;;;;47.30;26.63;;;;;;;;;;5082439;28;20469;-79
2023/01/29 12:00:57;;;;;;;47.60;26.33;;;;;;;;;;5081583;28;20455;-79
2023/01/29 12:03:28;;;;;;;45.10;27.80;;;;;;;;;;5078639;28;20532;-79
2023/01/29 12:05:56;;;;;;;41.23;24.40;;;;;;;;;;5081390;28;20463;-79
2023/01/29 12:08:24;;;;;;;46.53;28.47;;;;;;;;;;5078473;28;21136;-79
2023/01/29 12:10:51;;;;;;;38.90;24.53;;;;;;;;;;5082142;28;20462;-79
2023/01/29 12:13:28;;;;;;;46.43;28.20;;;;;;;;;;5082769;28;20545;-79
2023/01/29 12:16:06;;;;;;;41.47;24.40;;;;;;;;;;5079615;28;22204;-79
2023/01/29 12:18:35;;;;;;;40.70;25.10;;;;;;;;;;5081500;28;20864;-79
2023/01/29 12:21:04;;;;;;;40.57;26.00;;;;;;;;;;5082058;28;20470;-79
2023/01/29 12:23:35;;;;;;;42.63;26.43;;;;;;;;;;5077658;28;20999;-79
2023/01/29 12:26:04;;;;;;;42.33;25.53;;;;;;;;;;5081102;28;20459;-79
2023/01/29 12:28:37;;;;;;;44.13;26.00;;;;;;;;;;5079019;28;20512;-79
2023/01/29 12:31:11;;;;;;;45.30;27.00;;;;;;;;;;5083041;28;20504;-79
2023/01/29 12:33:41;;;;;;;41.50;26.43;;;;;;;;;;5079259;28;20469;-79
2023/01/29 12:36:10;;;;;;;48.73;29.60;;;;;;;;;;5082743;28;20454;-79
2023/01/29 12:38:39;;;;;;;44.70;26.53;;;;;;;;;;5080338;28;20486;-79
2023/01/29 12:41:08;;;;;;;41.70;26.50;;;;;;;;;;5081114;28;20486;-79
2023/01/29 12:43:38;;;;;;;55.50;28.53;;;;;;;;;;5079151;28;20485;-79
2023/01/29 12:46:11;;;;;;;49.90;30.40;;;;;;;;;;5080735;28;20454;-79
2023/01/29 12:48:39;;;;;;;60.57;34.33;;;;;;;;;;5080438;28;20484;-79
2023/01/29 12:51:07;;;;;;;46.80;28.00;;;;;;;;;;5080747;28;20450;-79
2023/01/29 12:53:35;;;;;;;43.80;26.20;;;;;;;;;;5080278;28;20470;-79
2023/01/29 12:56:08;;;;;;;45.07;27.40;;;;;;;;;;5082425;28;20453;-79
2023/01/29 12:58:36;;;;;;;61.20;28.50;;;;;;;;;;5082175;28;20475;-79
2023/01/29 13:01:04;;;;;;;49.40;28.70;;;;;;;;;;5077829;28;20524;-79
2023/01/29 13:03:34;;;;;;;45.50;26.43;;;;;;;;;;5080296;28;20517;-79
2023/01/29 13:06:02;;;;;;;40.93;25.67;;;;;;;;;;5080350;28;20462;-79
2023/01/29 13:08:32;;;;;;;44.50;25.87;;;;;;;;;;5079072;28;20465;-79
2023/01/29 13:11:01;;;;;;;42.47;26.47;;;;;;;;;;5079816;28;20486;-79
2023/01/29 13:13:32;;;;;;;42.03;26.97;;;;;;;;;;5079048;28;20535;-79
2023/01/29 13:15:59;;;;;;;41.63;27.40;;;;;;;;;;5077695;28;20458;-79
2023/01/29 13:18:33;;;;;;;45.00;27.23;;;;;;;;;;5080867;28;20471;-79
2023/01/29 13:21:00;;;;;;;45.37;28.07;;;;;;;;;;5078884;28;20466;-79
2023/01/29 13:23:30;;;;;;;41.33;27.80;;;;;;;;;;5078354;28;20478;-79
2023/01/29 13:25:57;;;;;;;43.43;27.27;;;;;;;;;;5079333;28;20454;-78
2023/01/29 13:28:25;;;;;;;55.20;31.70;;;;;;;;;;5079020;28;20473;-78
2023/01/29 13:31:06;;;;;;;51.43;27.77;;;;;;;;;;5078282;28;20455;-79
2023/01/29 13:33:34;;;;;;;51.57;29.60;;;;;;;;;;5081362;28;20475;-79
2023/01/29 13:36:00;;;;;;;54.27;31.63;;;;;;;;;;5079136;28;20457;-79
2023/01/29 13:38:29;;;;;;;44.93;26.20;;;;;;;;;;5080334;28;20486;-79
2023/01/29 13:40:59;;;;;;;45.13;26.93;;;;;;;;;;5082203;28;20977;-78
2023/01/29 13:43:27;;;;;;;57.80;29.93;;;;;;;;;;5080479;28;20476;-79
2023/01/29 13:45:54;;;;;;;56.87;31.10;;;;;;;;;;5080186;28;20490;-79
2023/01/29 13:48:23;;;;;;;54.43;28.87;;;;;;;;;;5079798;28;20479;-78
2023/01/29 13:50:52;;;;;;;56.43;33.47;;;;;;;;;;5080104;28;20876;-79
2023/01/29 13:53:22;;;;;;;50.80;27.37;;;;;;;;;;5079774;28;21010;-79
2023/01/29 13:55:48;;;;;;;49.27;30.50;;;;;;;;;;5079804;28;20442;-79
2023/01/29 13:58:17;;;;;;;47.93;28.50;;;;;;;;;;5080579;28;21112;-79
2023/01/29 14:00:52;;;;;;;45.27;28.33;;;;;;;;;;5081004;28;20479;-79
2023/01/29 14:03:42;;;;;;;45.87;27.33;;;;;;;;;;5079555;28;20993;-79
2023/01/29 14:06:10;;;;;;;44.80;29.13;;;;;;;;;;5079948;28;20446;-79
2023/01/29 14:08:39;;;;;;;46.17;28.57;;;;;;;;;;5080335;28;20483;-79
2023/01/29 14:11:25;;;;;;;44.57;28.10;;;;;;;;;;5080209;28;20986;-79
2023/01/29 14:13:52;;;;;;;45.60;29.27;;;;;;;;;;5080408;28;21010;-79
2023/01/29 14:16:34;;;;;;;50.43;30.90;;;;;;;;;;5080371;28;20446;-78
2023/01/29 14:19:01;;;;;;;46.00;30.47;;;;;;;;;;5077934;28;20467;-79
2023/01/29 14:21:30;;;;;;;51.50;28.77;;;;;;;;;;5079095;28;20458;-79
2023/01/29 14:23:57;;;;;;;53.53;31.50;;;;;;;;;;5080234;28;20500;-79
2023/01/29 14:26:27;;;;;;;47.57;28.07;;;;;;;;;;5079527;28;20443;-79
2023/01/29 14:28:56;;;;;;;54.63;30.40;;;;;;;;;;5078835;28;21261;-79
2023/01/29 14:31:36;;;;;;;51.13;28.50;;;;;;;;;;5080614;28;20943;-79
2023/01/29 14:34:03;;;;;;;43.77;30.17;;;;;;;;;;5078536;28;20500;-79
2023/01/29 14:36:38;;;;;;;45.60;28.87;;;;;;;;;;5078827;28;21002;-79
2023/01/29 14:39:05;;;;;;;45.90;28.47;;;;;;;;;;5079653;28;21394;-79
2023/01/29 14:41:32;;;;;;;42.30;28.30;;;;;;;;;;5082700;28;20450;-79
2023/01/29 14:44:17;;;;;;;52.27;32.90;;;;;;;;;;5081264;28;20548;-79
2023/01/29 14:46:45;;;;;;;60.77;33.50;;;;;;;;;;5081703;28;20461;-79
2023/01/29 14:49:11;;;;;;;51.50;32.30;;;;;;;;;;5084052;28;20472;-79
2023/01/29 14:51:41;;;;;;;55.50;30.10;;;;;;;;;;5084358;28;20492;-79
2023/01/29 14:54:15;;;;;;;51.00;30.17;;;;;;;;;;5082572;28;20478;-79